createdAt,value
2017-05-30T00:00:07.256Z,72.80
2017-05-30T00:02:37.310Z,72.20
2017-05-30T00:05:07.300Z,71.90
2017-05-30T00:07:37.416Z,71.00
2017-05-30T00:10:07.431Z,71.60
2017-05-30T00:12:37.464Z,70.70
2017-05-30T00:15:07.467Z,71.30
2017-05-30T00:17:37.493Z,72.20
2017-05-30T00:20:07.549Z,72.50
2017-05-30T00:22:37.528Z,72.60
2017-05-30T00:25:07.555Z,73.00
2017-05-30T00:27:37.543Z,72.70
2017-05-30T00:30:07.585Z,73.90
2017-05-30T00:32:37.563Z,73.20
2017-05-30T00:35:07.581Z,73.40
2017-05-30T00:37:37.606Z,74.70
2017-05-30T00:40:07.588Z,75.40
2017-05-30T00:42:37.589Z,75.60
2017-05-30T00:45:07.567Z,75.80
2017-05-30T00:47:37.598Z,76.10
2017-05-30T00:50:07.600Z,76.20
2017-05-30T00:52:37.637Z,76.70
2017-05-30T00:55:07.619Z,76.20
2017-05-30T00:57:37.626Z,76.70
2017-05-30T01:00:07.630Z,76.70
2017-05-30T01:02:37.664Z,76.60
2017-05-30T01:05:07.667Z,76.40
2017-05-30T01:07:37.668Z,76.90
2017-05-30T01:10:07.718Z,76.90
2017-05-30T01:12:37.704Z,76.70
2017-05-30T01:15:07.713Z,76.30
2017-05-30T01:17:37.705Z,76.00
2017-05-30T01:20:07.686Z,76.20
2017-05-30T01:22:37.695Z,76.50
2017-05-30T01:25:07.694Z,76.50
2017-05-30T01:27:37.749Z,76.60
2017-05-30T01:30:07.743Z,76.50
2017-05-30T01:32:37.751Z,76.30
2017-05-30T01:35:07.730Z,75.40
2017-05-30T01:37:37.400Z,75.70
2017-05-30T01:40:07.417Z,76.20
2017-05-30T01:42:37.411Z,75.10
2017-05-30T01:45:07.423Z,75.10
2017-05-30T01:47:37.416Z,75.40
2017-05-30T01:50:07.092Z,76.20
2017-05-30T01:52:37.071Z,76.60
2017-05-30T01:55:07.109Z,76.70
2017-05-30T01:57:37.138Z,76.60
2017-05-30T02:00:07.221Z,76.80
2017-05-30T02:02:37.210Z,77.10
2017-05-30T02:05:07.233Z,77.80
2017-05-30T02:07:37.253Z,78.10
2017-05-30T02:10:07.234Z,78.10
2017-05-30T02:12:37.255Z,78.20
2017-05-30T02:15:07.263Z,78.70
2017-05-30T02:17:37.303Z,78.80
2017-05-30T02:20:07.295Z,78.30
2017-05-30T02:22:37.298Z,78.40
2017-05-30T02:25:07.335Z,78.80
2017-05-30T02:27:37.336Z,79.70
2017-05-30T02:30:07.349Z,79.80
2017-05-30T02:32:37.345Z,79.70
2017-05-30T02:35:07.381Z,79.80
2017-05-30T02:37:37.363Z,79.90
2017-05-30T02:40:07.757Z,80.20
2017-05-30T02:42:37.749Z,80.00
2017-05-30T02:45:07.753Z,79.90
2017-05-30T02:47:37.760Z,79.90
2017-05-30T02:50:07.741Z,80.20
2017-05-30T02:52:37.744Z,80.30
2017-05-30T02:55:07.731Z,79.50
2017-05-30T02:57:37.750Z,79.30
2017-05-30T03:00:07.744Z,78.70
2017-05-30T03:02:37.754Z,78.80
2017-05-30T03:05:07.751Z,78.50
2017-05-30T03:07:37.776Z,78.30
2017-05-30T03:10:07.782Z,77.90
2017-05-30T03:12:37.777Z,78.00
2017-05-30T03:15:07.789Z,77.80
2017-05-30T03:17:37.784Z,78.10
2017-05-30T03:20:07.940Z,77.80
2017-05-30T03:22:37.928Z,78.00
2017-05-30T03:25:07.992Z,77.80
2017-05-30T03:27:38.038Z,78.20
2017-05-30T03:30:08.051Z,78.40
2017-05-30T03:32:38.064Z,78.20
2017-05-30T03:35:08.043Z,77.80
2017-05-30T03:37:38.050Z,77.50
2017-05-30T03:40:07.843Z,77.20
2017-05-30T03:42:37.866Z,77.40
2017-05-30T03:45:07.845Z,77.00
2017-05-30T03:47:37.851Z,76.40
2017-05-30T03:50:07.876Z,76.60
2017-05-30T03:52:37.870Z,76.60
2017-05-30T03:55:07.886Z,76.70
2017-05-30T03:57:37.898Z,76.70
2017-05-30T04:00:07.922Z,76.60
2017-05-30T04:02:37.941Z,76.10
2017-05-30T04:05:07.938Z,76.60
2017-05-30T04:07:37.948Z,76.60
2017-05-30T04:10:07.994Z,76.30
2017-05-30T04:12:38.105Z,76.90
2017-05-30T04:15:08.088Z,76.80
2017-05-30T04:17:38.127Z,75.70
2017-05-30T04:20:08.119Z,75.80
2017-05-30T04:22:38.125Z,74.80
2017-05-30T04:25:08.131Z,75.50
2017-05-30T04:27:38.156Z,75.20
2017-05-30T04:30:08.160Z,75.90
2017-05-30T04:32:38.200Z,76.10
2017-05-30T04:35:08.221Z,75.60
2017-05-30T04:37:38.273Z,76.30
2017-05-30T04:40:08.279Z,76.70
2017-05-30T04:42:38.297Z,76.10
2017-05-30T04:45:08.320Z,76.40
2017-05-30T04:47:38.361Z,76.00
2017-05-30T04:50:08.351Z,75.70
2017-05-30T04:52:38.406Z,76.60
2017-05-30T04:55:08.400Z,75.30
2017-05-30T04:57:38.441Z,75.60
2017-05-30T05:00:08.507Z,76.10
2017-05-30T05:02:38.530Z,75.00
2017-05-30T05:05:08.339Z,74.80
2017-05-30T05:07:38.371Z,75.30
2017-05-30T05:10:08.367Z,75.90
2017-05-30T05:12:38.371Z,75.30
2017-05-30T05:15:08.391Z,76.00
2017-05-30T05:17:38.443Z,75.60
2017-05-30T05:20:08.451Z,75.10
2017-05-30T05:22:38.481Z,74.80
2017-05-30T05:25:08.533Z,75.20
2017-05-30T05:27:38.554Z,74.50
2017-05-30T05:30:08.554Z,74.00
2017-05-30T05:32:38.564Z,73.50
2017-05-30T05:35:08.583Z,72.70
2017-05-30T05:37:38.593Z,71.70
2017-05-30T05:40:08.594Z,69.80
2017-05-30T05:42:38.615Z,67.90
2017-05-30T05:45:08.637Z,65.30
2017-05-30T05:47:38.773Z,64.10
2017-05-30T05:50:08.755Z,61.70
2017-05-30T05:52:38.772Z,60.60
2017-05-30T05:55:08.788Z,60.00
2017-05-30T05:57:38.797Z,60.30
2017-05-30T06:00:08.808Z,59.60
2017-05-30T06:02:38.802Z,59.10
2017-05-30T06:05:08.842Z,58.50
2017-05-30T06:07:38.858Z,58.10
2017-05-30T06:10:08.658Z,58.00
2017-05-30T06:12:38.690Z,57.50
2017-05-30T06:15:08.680Z,57.10
2017-05-30T06:17:38.685Z,56.70
2017-05-30T06:20:08.675Z,56.80
2017-05-30T06:22:38.682Z,56.10
2017-05-30T06:25:08.665Z,56.10
2017-05-30T06:27:38.685Z,56.30
2017-05-30T06:30:08.689Z,55.50
2017-05-30T06:32:38.699Z,55.70
2017-05-30T06:35:08.684Z,54.30
2017-05-30T06:37:38.686Z,53.70
2017-05-30T06:40:08.673Z,53.90
2017-05-30T06:42:38.709Z,53.70
2017-05-30T06:45:08.716Z,53.50
2017-05-30T06:47:38.744Z,53.50
2017-05-30T06:50:08.740Z,51.90
2017-05-30T06:52:38.760Z,51.90
2017-05-30T06:55:08.759Z,51.70
2017-05-30T06:57:38.803Z,52.20
2017-05-30T07:00:08.821Z,51.20
2017-05-30T07:02:38.802Z,51.10
2017-05-30T07:05:08.812Z,51.60
2017-05-30T07:07:38.821Z,52.60
2017-05-30T07:10:08.867Z,52.20
2017-05-30T07:12:38.876Z,51.60
2017-05-30T07:15:08.942Z,51.40
2017-05-30T07:17:38.944Z,49.90
2017-05-30T07:20:08.950Z,49.30
2017-05-30T07:22:38.979Z,48.20
2017-05-30T07:25:08.987Z,47.80
2017-05-30T07:27:38.992Z,47.40
2017-05-30T07:30:09.007Z,48.30
2017-05-30T07:32:40.239Z,50.00
2017-05-30T07:35:10.257Z,49.30
2017-05-30T07:37:40.342Z,49.00
2017-05-30T07:40:10.383Z,49.00
2017-05-30T07:42:40.368Z,49.50
2017-05-30T07:45:10.365Z,50.70
2017-05-30T07:47:40.377Z,50.10
2017-05-30T07:50:10.423Z,49.00
2017-05-30T07:52:40.413Z,49.60
2017-05-30T07:55:10.428Z,51.50
2017-05-30T07:57:40.435Z,53.10
2017-05-30T08:00:10.108Z,52.00
2017-05-30T08:02:39.796Z,49.70
2017-05-30T08:05:09.791Z,49.20
2017-05-30T08:07:39.810Z,48.50
2017-05-30T08:10:09.796Z,48.00
2017-05-30T08:12:39.868Z,47.20
2017-05-30T08:15:09.856Z,46.70
2017-05-30T08:17:39.851Z,46.20
2017-05-30T08:20:09.848Z,45.30
2017-05-30T08:22:39.875Z,44.40
2017-05-30T08:25:09.868Z,45.20
2017-05-30T08:27:39.885Z,44.70
2017-05-30T08:30:09.875Z,44.60
2017-05-30T08:32:39.900Z,43.20
2017-05-30T08:35:09.878Z,42.60
2017-05-30T08:37:39.987Z,44.10
2017-05-30T08:40:09.983Z,44.90
2017-05-30T08:42:40.179Z,44.60
2017-05-30T08:45:10.279Z,43.90
2017-05-30T08:47:40.749Z,43.80
2017-05-30T08:50:10.768Z,43.00
2017-05-30T08:52:40.779Z,43.60
2017-05-30T08:55:10.782Z,43.20
2017-05-30T08:57:40.779Z,42.70
2017-05-30T09:00:10.796Z,41.50
2017-05-30T09:02:40.854Z,41.70
2017-05-30T09:05:10.964Z,41.40
2017-05-30T09:07:40.953Z,40.80
2017-05-30T09:10:11.064Z,40.20
2017-05-30T09:12:41.048Z,40.10
2017-05-30T09:15:11.064Z,40.20
2017-05-30T09:17:41.239Z,38.70
2017-05-30T09:20:11.243Z,38.10
2017-05-30T09:22:41.250Z,38.30
2017-05-30T09:25:11.262Z,37.60
2017-05-30T09:27:41.246Z,39.50
2017-05-30T09:30:11.316Z,40.60
2017-05-30T09:32:41.314Z,40.60
2017-05-30T09:35:11.344Z,40.90
2017-05-30T09:37:41.337Z,41.60
2017-05-30T09:40:11.340Z,41.10
2017-05-30T09:42:41.329Z,41.70
2017-05-30T09:45:11.343Z,43.20
2017-05-30T09:47:41.344Z,43.50
2017-05-30T09:50:11.399Z,44.90
2017-05-30T09:52:41.388Z,44.60
2017-05-30T09:55:11.415Z,43.50
2017-05-30T09:57:41.219Z,41.60
2017-05-30T10:00:10.876Z,39.20
2017-05-30T10:02:40.911Z,39.80
2017-05-30T10:05:10.893Z,41.90
2017-05-30T10:07:40.912Z,43.90
2017-05-30T10:10:10.907Z,45.40
2017-05-30T10:12:40.912Z,46.20
2017-05-30T10:15:10.904Z,46.40
2017-05-30T10:17:40.907Z,45.00
2017-05-30T10:20:10.882Z,45.20
2017-05-30T10:22:40.888Z,45.60
2017-05-30T10:25:10.881Z,45.70
2017-05-30T10:27:40.892Z,44.50
2017-05-30T10:30:10.890Z,43.70
2017-05-30T10:32:40.883Z,41.50
2017-05-30T10:35:10.868Z,41.30
2017-05-30T10:37:40.916Z,42.20
2017-05-30T10:40:10.915Z,45.50
2017-05-30T10:42:40.991Z,48.70
2017-05-30T10:45:10.975Z,51.20
2017-05-30T10:47:40.979Z,55.30
2017-05-30T10:50:10.978Z,59.70
2017-05-30T10:52:40.998Z,60.00
2017-05-30T10:55:10.978Z,59.50
2017-05-30T10:57:41.043Z,58.80
2017-05-30T11:00:10.644Z,58.90
2017-05-30T11:02:40.651Z,58.90
2017-05-30T11:05:10.651Z,60.30
2017-05-30T11:07:40.649Z,61.90
2017-05-30T11:10:10.656Z,64.10
2017-05-30T11:12:40.643Z,69.30
2017-05-30T11:15:10.648Z,77.30
2017-05-30T11:17:40.626Z,82.20
2017-05-30T11:20:10.641Z,82.80
2017-05-30T11:22:39.897Z,82.70
2017-05-30T11:25:09.912Z,85.10
2017-05-30T11:27:39.964Z,84.10
2017-05-30T11:30:10.014Z,84.60
2017-05-30T11:32:40.015Z,85.80
2017-05-30T11:35:10.011Z,86.90
2017-05-30T11:37:40.012Z,86.70
2017-05-30T11:40:10.037Z,87.10
2017-05-30T11:42:40.052Z,87.20
2017-05-30T11:45:10.158Z,86.60
2017-05-30T11:47:40.164Z,87.10
2017-05-30T11:50:10.147Z,86.30
2017-05-30T11:52:40.154Z,85.40
2017-05-30T11:55:10.165Z,84.70
2017-05-30T11:57:40.204Z,85.10
2017-05-30T12:00:10.193Z,84.10
2017-05-30T12:02:40.221Z,84.70
2017-05-30T12:05:10.231Z,83.50
2017-05-30T12:07:40.248Z,83.30
2017-05-30T12:10:10.258Z,83.30
2017-05-30T12:12:40.273Z,81.30
2017-05-30T12:15:10.271Z,81.80
2017-05-30T12:17:40.298Z,80.60
2017-05-30T12:20:10.275Z,80.50
2017-05-30T12:22:40.453Z,79.10
2017-05-30T12:25:10.444Z,77.70
2017-05-30T12:27:40.456Z,75.90
2017-05-30T12:30:10.449Z,75.30
2017-05-30T12:32:40.454Z,73.40
2017-05-30T12:35:10.460Z,72.80
2017-05-30T12:37:40.456Z,72.70
2017-05-30T12:40:10.462Z,70.80
2017-05-30T12:42:40.454Z,67.70
2017-05-30T12:45:10.447Z,65.20
2017-05-30T12:47:40.426Z,60.80
2017-05-30T12:50:10.460Z,59.00
2017-05-30T12:52:40.435Z,55.80
2017-05-30T12:55:10.457Z,54.20
2017-05-30T12:57:40.432Z,53.40
2017-05-30T13:00:10.424Z,55.00
2017-05-30T13:02:40.408Z,56.70
2017-05-30T13:05:10.400Z,56.60
2017-05-30T13:07:40.367Z,55.50
2017-05-30T13:10:10.364Z,55.50
2017-05-30T13:12:40.349Z,56.30
2017-05-30T13:15:10.330Z,56.80
2017-05-30T13:17:40.324Z,56.50
2017-05-30T13:20:10.308Z,56.60
2017-05-30T13:22:40.309Z,57.00
2017-05-30T13:25:10.297Z,56.20
2017-05-30T13:27:40.296Z,55.00
2017-05-30T13:30:10.287Z,55.20
2017-05-30T13:32:40.296Z,56.50
2017-05-30T13:35:10.289Z,57.60
2017-05-30T13:37:40.301Z,58.70
2017-05-30T13:40:10.277Z,60.80
2017-05-30T13:42:40.287Z,61.60
2017-05-30T13:45:10.267Z,61.80
2017-05-30T13:47:40.302Z,62.00
2017-05-30T13:50:10.296Z,63.00
2017-05-30T13:52:40.299Z,63.60
2017-05-30T13:55:10.308Z,63.10
2017-05-30T13:57:40.306Z,63.40
2017-05-30T14:00:10.317Z,62.20
2017-05-30T14:02:40.328Z,61.60
2017-05-30T14:07:45.491Z,57.30
2017-05-30T14:10:15.496Z,57.50
2017-05-30T14:12:45.504Z,56.10
2017-05-30T14:15:15.516Z,55.70
2017-05-30T14:17:45.493Z,56.10
2017-05-30T14:20:15.503Z,57.40
2017-05-30T14:22:45.475Z,57.20
2017-05-30T14:25:15.464Z,58.70
2017-05-30T14:27:45.478Z,58.20
2017-05-30T14:30:15.473Z,58.30
2017-05-30T14:32:45.443Z,57.30
2017-05-30T14:35:15.456Z,57.20
2017-05-30T14:37:45.442Z,55.70
2017-05-30T14:40:15.478Z,55.90
2017-05-30T14:42:45.453Z,55.80
2017-05-30T14:45:15.448Z,56.70
2017-05-30T14:47:45.463Z,56.80
2017-05-30T14:50:15.467Z,56.60
2017-05-30T14:52:45.459Z,56.90
2017-05-30T14:55:15.463Z,56.60
2017-05-30T14:57:45.463Z,53.60
2017-05-30T15:00:15.512Z,53.70
2017-05-30T15:02:45.544Z,54.40
2017-05-30T15:05:15.558Z,54.40
2017-05-30T15:07:45.550Z,54.40
2017-05-30T15:10:15.542Z,54.50
2017-05-30T15:12:45.531Z,53.50
2017-05-30T15:15:15.523Z,53.30
2017-05-30T15:17:45.531Z,53.20
2017-05-30T15:20:15.512Z,53.60
2017-05-30T15:22:45.506Z,53.40
2017-05-30T15:25:15.490Z,54.30
2017-05-30T15:27:45.499Z,53.70
2017-05-30T15:30:15.500Z,53.00
2017-05-30T15:32:45.548Z,52.60
2017-05-30T15:35:15.530Z,53.50
2017-05-30T15:37:45.536Z,52.70
2017-05-30T15:40:15.511Z,52.70
2017-05-30T15:42:45.516Z,53.10
2017-05-30T15:45:15.485Z,54.40
2017-05-30T15:47:45.488Z,55.40
2017-05-30T15:50:15.477Z,54.70
2017-05-30T15:52:45.495Z,55.30
2017-05-30T15:55:15.485Z,55.80
2017-05-30T15:57:45.473Z,56.00
2017-05-30T16:00:15.484Z,55.90
2017-05-30T16:02:45.474Z,55.70
2017-05-30T16:05:15.484Z,56.00
2017-05-30T16:07:45.539Z,55.80
2017-05-30T16:10:15.543Z,56.40
2017-05-30T16:12:45.573Z,57.00
2017-05-30T16:15:15.579Z,57.20
2017-05-30T16:17:45.556Z,57.50
2017-05-30T16:20:15.571Z,58.00
2017-05-30T16:22:45.546Z,58.60
2017-05-30T16:25:15.571Z,59.50
2017-05-30T16:27:45.552Z,59.60
2017-05-30T16:30:15.552Z,60.10
2017-05-30T16:32:45.566Z,60.70
2017-05-30T16:35:15.548Z,61.70
2017-05-30T16:37:45.551Z,62.10
2017-05-30T16:40:15.564Z,62.60
2017-05-30T16:42:45.655Z,63.20
2017-05-30T16:45:15.634Z,63.30
2017-05-30T16:47:45.627Z,63.70
2017-05-30T16:50:15.641Z,63.90
2017-05-30T16:52:45.704Z,64.40
2017-05-30T16:55:15.700Z,65.20
2017-05-30T16:57:45.818Z,64.60
2017-05-30T17:00:15.795Z,64.30
2017-05-30T17:02:45.809Z,64.50
2017-05-30T17:05:15.828Z,65.10
2017-05-30T17:07:45.856Z,65.10
2017-05-30T17:10:15.813Z,65.80
2017-05-30T17:12:45.952Z,66.10
2017-05-30T17:15:15.949Z,67.00
2017-05-30T17:17:45.944Z,67.40
2017-05-30T17:20:15.940Z,67.20
2017-05-30T17:22:45.934Z,68.60
2017-05-30T17:25:15.941Z,71.20
2017-05-30T17:27:45.932Z,72.70
2017-05-30T17:30:15.949Z,75.00
2017-05-30T17:32:45.936Z,74.60
2017-05-30T17:35:15.943Z,78.10
2017-05-30T17:37:45.918Z,78.70
2017-05-30T17:40:15.964Z,78.20
2017-05-30T17:42:45.984Z,79.00
2017-05-30T17:45:15.986Z,78.90
2017-05-30T17:47:45.980Z,81.50
2017-05-30T17:50:15.992Z,82.50
2017-05-30T17:52:46.010Z,82.50
2017-05-30T17:55:16.017Z,82.00
2017-05-30T17:57:46.031Z,81.10
2017-05-30T18:00:16.039Z,82.90
2017-05-30T18:02:46.030Z,80.60
2017-05-30T18:05:16.023Z,82.00
2017-05-30T18:07:46.031Z,81.40
2017-05-30T18:10:16.025Z,82.40
2017-05-30T18:12:46.048Z,79.10
2017-05-30T18:15:16.058Z,80.10
2017-05-30T18:17:46.100Z,79.90
2017-05-30T18:20:16.086Z,80.20
2017-05-30T18:22:46.115Z,78.00
2017-05-30T18:25:16.095Z,79.00
2017-05-30T18:27:46.128Z,77.70
2017-05-30T18:30:16.115Z,79.20
2017-05-30T18:32:46.118Z,78.70
2017-05-30T18:35:16.119Z,77.30
2017-05-30T18:37:46.106Z,78.70
2017-05-30T18:40:16.131Z,76.80
2017-05-30T18:42:46.121Z,77.60
2017-05-30T18:45:16.144Z,76.70
2017-05-30T18:47:46.127Z,76.20
2017-05-30T18:50:16.136Z,76.80
2017-05-30T18:52:46.133Z,76.00
2017-05-30T18:55:16.152Z,77.30
2017-05-30T18:57:46.130Z,76.60
2017-05-30T19:00:16.135Z,75.50
2017-05-30T19:02:46.133Z,76.10
2017-05-30T19:05:16.144Z,76.90
2017-05-30T19:07:46.129Z,76.60
2017-05-30T19:10:16.174Z,76.10
2017-05-30T19:12:46.153Z,75.80
2017-05-30T19:15:16.160Z,75.70
2017-05-30T19:17:46.172Z,75.40
2017-05-30T19:20:16.152Z,75.40
2017-05-30T19:22:46.155Z,75.90
2017-05-30T19:25:16.162Z,75.40
2017-05-30T19:27:46.174Z,75.90
2017-05-30T19:30:16.147Z,77.00
2017-05-30T19:32:46.156Z,77.10
2017-05-30T19:35:16.143Z,77.60
2017-05-30T19:37:46.147Z,78.50
2017-05-30T19:40:16.138Z,78.80
2017-05-30T19:42:46.261Z,79.70
2017-05-30T19:45:16.268Z,79.20
2017-05-30T19:47:46.276Z,79.60
2017-05-30T19:50:16.259Z,80.10
2017-05-30T19:52:46.266Z,79.80
2017-05-30T19:55:16.273Z,80.20
2017-05-30T19:57:46.291Z,80.10
2017-05-30T20:00:16.327Z,80.50
2017-05-30T20:02:46.306Z,80.80
2017-05-30T20:05:16.313Z,81.20
2017-05-30T20:07:46.296Z,81.50
2017-05-30T20:10:16.311Z,82.00
2017-05-30T20:12:46.511Z,82.20
2017-05-30T20:15:16.725Z,82.10
2017-05-30T20:17:46.909Z,82.10
2017-05-30T20:20:17.147Z,82.20
2017-05-30T20:22:47.348Z,82.60
2017-05-30T20:25:17.556Z,82.20
2017-05-30T20:27:47.755Z,81.80
2017-05-30T20:30:17.959Z,81.80
2017-05-30T20:32:48.174Z,81.30
2017-05-30T20:35:18.428Z,81.30
2017-05-30T20:37:48.682Z,81.00
2017-05-30T20:40:18.948Z,81.10
2017-05-30T20:42:49.269Z,81.00
2017-05-30T20:45:19.570Z,81.20
2017-05-30T20:47:49.807Z,81.20
2017-05-30T20:50:20.060Z,81.30
2017-05-30T20:52:50.261Z,81.40
2017-05-30T20:55:20.535Z,81.20
2017-05-30T20:57:50.819Z,81.20
2017-05-30T21:00:21.087Z,81.80
2017-05-30T21:02:51.323Z,81.00
2017-05-30T21:05:21.528Z,80.90
2017-05-30T21:07:51.719Z,79.90
2017-05-30T21:10:21.936Z,80.00
2017-05-30T21:12:52.123Z,80.00
2017-05-30T21:15:22.324Z,80.50
2017-05-30T21:17:52.526Z,79.30
2017-05-30T21:20:22.740Z,79.00
2017-05-30T21:22:52.942Z,78.60
2017-05-30T21:25:23.149Z,78.70
2017-05-30T21:27:53.435Z,78.40
2017-05-30T21:30:23.639Z,77.90
2017-05-30T21:32:53.843Z,78.10
2017-05-30T21:35:24.041Z,78.10
2017-05-30T21:37:54.248Z,78.20
2017-05-30T21:40:24.433Z,79.00
2017-05-30T21:42:54.666Z,78.50
2017-05-30T21:45:24.885Z,78.70
2017-05-30T21:47:55.087Z,79.30
2017-05-30T21:50:25.277Z,80.00
2017-05-30T21:52:55.474Z,80.50
2017-05-30T21:55:25.795Z,80.90
2017-05-30T21:57:56.052Z,82.10
2017-05-30T22:00:26.227Z,80.90
2017-05-30T22:02:56.428Z,81.40
2017-05-30T22:05:26.612Z,81.60
2017-05-30T22:07:56.808Z,82.00
2017-05-30T22:10:27.047Z,80.10
2017-05-30T22:12:57.275Z,79.90
2017-05-30T22:15:27.463Z,78.90
2017-05-30T22:17:57.686Z,78.70
2017-05-30T22:20:27.864Z,78.60
2017-05-30T22:22:57.891Z,78.40
2017-05-30T22:25:28.107Z,78.40
2017-05-30T22:27:58.311Z,78.70
2017-05-30T22:30:28.520Z,78.70
2017-05-30T22:32:58.723Z,79.00
2017-05-30T22:35:28.914Z,79.00
2017-05-30T22:37:58.937Z,79.20
2017-05-30T22:40:29.124Z,79.20
2017-05-30T22:42:59.356Z,79.40
2017-05-30T22:45:29.552Z,79.50
2017-05-30T22:47:59.747Z,79.80
2017-05-30T22:50:29.932Z,79.90
2017-05-30T22:53:00.140Z,80.20
2017-05-30T22:55:30.332Z,81.10
2017-05-30T22:58:00.721Z,80.40
2017-05-30T23:00:30.923Z,80.00
2017-05-30T23:03:01.131Z,80.00
2017-05-30T23:05:31.344Z,80.40
2017-05-30T23:08:01.576Z,80.70
2017-05-30T23:10:31.760Z,80.90
2017-05-30T23:13:01.969Z,81.30
2017-05-30T23:15:32.165Z,82.00
2017-05-30T23:18:02.381Z,81.70
2017-05-30T23:20:32.552Z,80.40
2017-05-30T23:23:02.766Z,80.10
2017-05-30T23:25:32.960Z,79.90
2017-05-30T23:28:03.159Z,78.50
2017-05-30T23:30:33.358Z,78.80
2017-05-30T23:33:03.608Z,79.60
2017-05-30T23:35:33.812Z,80.00
2017-05-30T23:38:04.033Z,80.10
2017-05-30T23:40:34.217Z,79.70
2017-05-30T23:43:04.414Z,79.50
2017-05-30T23:45:34.600Z,79.70
2017-05-30T23:48:04.818Z,80.00
2017-05-30T23:50:35.031Z,80.00
2017-05-30T23:53:05.250Z,80.40
2017-05-30T23:55:35.442Z,80.60
2017-05-30T23:58:06.267Z,80.50
